ADDS METAR Data INFO
IDs: Format: Raw Decoded Include TAF

Data at: 0903 UTC 20 Oct 2017

KDNV 200855Z AUTO 00000KT 10SM CLR 11/10 A3018 RMK AO2 T01050096
KDNV 200835Z AUTO 00000KT 10SM CLR 11/10 A3018 RMK AO2 T01050096
KDNV 200815Z AUTO 15003KT 10SM CLR 11/10 A3018 RMK AO2 T01090096
KDNV 200755Z AUTO 00000KT 10SM CLR 11/10 A3018 RMK AO2 T01100097
KDNV 200735Z AUTO 16003KT 10SM CLR 11/10 A3018 RMK AO2 T01110097
KDNV 200715Z AUTO 16003KT 10SM CLR 11/10 A3018 RMK AO2 T01110097
KDNV 200655Z AUTO 16003KT 10SM CLR 12/10 A3018 RMK AO2 T01150100
KDNV 200635Z AUTO 00000KT 10SM CLR 12/10 A3018 RMK AO2 T01160100
KDNV 200615Z AUTO 13003KT 10SM CLR 12/10 A3017 RMK AO2 T01180100
KDNV 200555Z AUTO 00000KT 10SM CLR 12/10 A3017 RMK AO2 T01210101 10179 20110 402450087
KDNV 200535Z AUTO 13003KT 10SM CLR 12/10 A3017 RMK AO2 T01160101
KDNV 200515Z AUTO 00000KT 10SM CLR 11/10 A3017 RMK AO2 T01110100
KDNV 200455Z AUTO 00000KT 10SM CLR 12/10 A3016 RMK AO2 T01210101
KDNV 200435Z AUTO 00000KT 10SM CLR 13/11 A3016 RMK AO2 T01290105
KDNV 200415Z AUTO 00000KT 10SM CLR 13/11 A3016 RMK AO2 T01310105
KDNV 200355Z AUTO 00000KT 10SM CLR 13/11 A3017 RMK AO2 T01310106
KDNV 200335Z AUTO 00000KT 10SM CLR 14/11 A3017 RMK AO2 T01370106
KDNV 200315Z AUTO 00000KT 10SM CLR 14/11 A3017 RMK AO2 T01390105
KDNV 200255Z AUTO 16003KT 10SM CLR 15/11 A3017 RMK AO2 T01470109
KDNV 200235Z AUTO 00000KT 10SM CLR 15/11 A3016 RMK AO2 T01510110
KDNV 200215Z AUTO 00000KT 10SM CLR 16/11 A3016 RMK AO2 T01570110
KDNV 200155Z AUTO 13003KT 10SM CLR 16/11 A3016 RMK AO2 T01550110
KDNV 200135Z AUTO 15003KT 10SM CLR 16/11 A3016 RMK AO2 T01570110
KDNV 200115Z AUTO 14004KT 10SM CLR 16/11 A3016 RMK AO2 T01640111
KDNV 200055Z AUTO 15005KT 10SM CLR 17/11 A3016 RMK AO2 T01700113
KDNV 200035Z AUTO 14006KT 10SM CLR 17/11 A3016 RMK AO2 T01710113
KDNV 200015Z AUTO 12005KT 10SM CLR 18/11 A3015 RMK AO2 T01790111
KDNV 192355Z AUTO 11004KT 10SM CLR 18/11 A3015 RMK AO2 T01810108 10245 20179
KDNV 192335Z AUTO 10003KT 10SM CLR 18/11 A3015 RMK AO2 T01800109
KDNV 192315Z AUTO 08003KT 10SM CLR 20/11 A3014 RMK AO2 T01950108
KDNV 192255Z AUTO 00000KT 10SM CLR 22/11 A3014 RMK AO2 T02180109
KDNV 192235Z AUTO 00000KT 10SM CLR 23/12 A3014 RMK AO2 T02270116
KDNV 192215Z AUTO 00000KT 10SM CLR 24/10 A3013 RMK AO2 T02390102
KDNV 192155Z AUTO 00000KT 10SM CLR 24/10 A3013 RMK AO2 T02400104
KDNV 192135Z AUTO 00000KT 10SM CLR 24/10 A3014 RMK AO2 T02410103
KDNV 192115Z AUTO 00000KT 10SM CLR 24/10 A3014 RMK AO2 T02410103
KDNV 192055Z AUTO 20004KT 10SM CLR 24/10 A3014 RMK AO2 T02410102
KDNV 192035Z AUTO 24003KT 10SM CLR 24/11 A3014 RMK AO2 T02380105
KDNV 192015Z AUTO 24003KT 10SM CLR 24/11 A3014 RMK AO2 T02380105
KDNV 191955Z AUTO 25003KT 10SM CLR 24/10 A3014 RMK AO2 T02370104
KDNV 191935Z AUTO 00000KT 10SM CLR 23/10 A3015 RMK AO2 T02340104
KDNV 191915Z AUTO 22005KT 10SM CLR 23/11 A3015 RMK AO2 T02340105
KDNV 191855Z AUTO 22004KT 10SM CLR 23/11 A3015 RMK AO2 T02260107
KDNV 191835Z AUTO 00000KT 10SM CLR 22/11 A3015 RMK AO2 T02170105
KDNV 191815Z AUTO 24003KT 10SM CLR 22/11 A3016 RMK AO2 T02150106
KDNV 191755Z AUTO 25004KT 10SM CLR 21/10 A3016 RMK AO2 T02130104 10213 20087
KDNV 191735Z AUTO 20004KT 10SM CLR 21/11 A3017 RMK AO2 T02050105
KDNV 191715Z AUTO 21003KT 10SM CLR 20/11 A3017 RMK AO2 T02030105
KDNV 191655Z AUTO 00000KT 10SM CLR 20/10 A3018 RMK AO2 T02010104
KDNV 191635Z AUTO 25005KT 10SM CLR 19/10 A3018 RMK AO2 T01910101
KDNV 191615Z AUTO 28003KT 10SM CLR 18/10 A3018 RMK AO2 T01830097
KDNV 191555Z AUTO 24006KT 10SM CLR 18/10 A3018 RMK AO2 T01800099
KDNV 191535Z AUTO 27004KT 10SM CLR 18/10 A3018 RMK AO2 T01750098
KDNV 191515Z AUTO 23004KT 10SM CLR 16/10 A3018 RMK AO2 T01640097
KDNV 191455Z AUTO 21006KT 10SM CLR 16/10 A3017 RMK AO2 T01580095
KDNV 191435Z AUTO 22005KT 10SM CLR 15/09 A3017 RMK AO2 T01480092
KDNV 191415Z AUTO 23006KT 10SM CLR 14/09 A3017 RMK AO2 T01370091
KDNV 191355Z AUTO 23007KT 10SM CLR 13/09 A3016 RMK AO2 T01280089
KDNV 191335Z AUTO 21006KT 10SM CLR 12/09 A3015 RMK AO2 T01170087
KDNV 191315Z AUTO 21004KT 10SM CLR 11/09 A3015 RMK AO2 T01050085
KDNV 191255Z AUTO 21005KT 10SM CLR 10/08 A3014 RMK AO2 T01000083
KDNV 191235Z AUTO 20004KT 10SM CLR 09/08 A3013 RMK AO2 T00910078
KDNV 191215Z AUTO 19004KT 10SM CLR 09/08 A3013 RMK AO2 T00890075
KDNV 191155Z AUTO 19003KT 10SM CLR 09/08 A3013 RMK AO2 T00910076 10118 20091
KDNV 191135Z AUTO 20005KT 10SM CLR 10/08 A3012 RMK AO2 T00950078
KDNV 191115Z AUTO 20005KT 10SM CLR 10/08 A3012 RMK AO2 T00990078
KDNV 191055Z AUTO 21006KT 10SM CLR 10/08 A3011 RMK AO2 T01020080
KDNV 191035Z AUTO 21006KT 10SM CLR 11/08 A3011 RMK AO2 T01050080
KDNV 191015Z AUTO 22008KT 10SM CLR 11/08 A3011 RMK AO2 T01100080
KDNV 190955Z AUTO 21007KT 10SM CLR 11/08 A3011 RMK AO2 T01100080
KDNV 190935Z AUTO 21008KT 10SM CLR 11/08 A3010 RMK AO2 T01110080
KDNV 190915Z AUTO 21008KT 10SM CLR 11/08 A3010 RMK AO2 T01110080
KDNV 190855Z AUTO 21008KT 10SM CLR 11/08 A3009 RMK AO2 T01090079
KDNV 190835Z AUTO 21008KT 10SM CLR 11/08 A3010 RMK AO2 T01100078
KDNV 190815Z AUTO 21009KT 10SM CLR 11/08 A3010 RMK AO2 T01130078
KDNV 190755Z AUTO 21009KT 10SM CLR 11/08 A3010 RMK AO2 T01130077
KDNV 190735Z AUTO 21008KT 10SM CLR 11/08 A3010 RMK AO2 T01120076
KDNV 190715Z AUTO 21007KT 10SM CLR 11/08 A3010 RMK AO2 T01130075
KDNV 190655Z AUTO 21007KT 10SM CLR 11/08 A3011 RMK AO2 T01130075
KDNV 190635Z AUTO 21007KT 10SM CLR 11/07 A3010 RMK AO2 T01140074
KDNV 190615Z AUTO 21008KT 10SM CLR 12/07 A3010 RMK AO2 T01160073
KDNV 190555Z AUTO 21009KT 10SM CLR 12/07 A3010 RMK AO2 T01190073 10154 20104 402140053
KDNV 190535Z AUTO 21008KT 10SM CLR 12/07 A3011 RMK AO2 T01200074
KDNV 190515Z AUTO 21008KT 10SM CLR 12/07 A3010 RMK AO2 T01200074
KDNV 190455Z AUTO 21006KT 10SM CLR 12/07 A3011 RMK AO2 T01150072
KDNV 190435Z AUTO 20006KT 10SM CLR 11/07 A3011 RMK AO2 T01050068
KDNV 190415Z AUTO 19005KT 10SM CLR 11/07 A3011 RMK AO2 T01080067
KDNV 190355Z AUTO 17006KT 10SM CLR 11/07 A3011 RMK AO2 T01140068
KDNV 190335Z AUTO 19005KT 10SM CLR 12/07 A3011 RMK AO2 T01210068
KDNV 190315Z AUTO 19006KT 10SM CLR 13/07 A3010 RMK AO2 T01290070
KDNV 190255Z AUTO 19006KT 10SM CLR 13/07 A3011 RMK AO2 T01310070
KDNV 190235Z AUTO 20006KT 10SM CLR 13/07 A3010 RMK AO2 T01340071
KDNV 190215Z AUTO 19006KT 10SM CLR 14/07 A3010 RMK AO2 T01370070
KDNV 190155Z AUTO 19008KT 10SM CLR 15/07 A3009 RMK AO2 T01460071
KDNV 190135Z AUTO 19008KT 10SM CLR 15/07 A3009 RMK AO2 T01470070
KDNV 190115Z AUTO 18007KT 10SM CLR 14/07 A3010 RMK AO2 T01430070
KDNV 190055Z AUTO 18008KT 10SM CLR 15/07 A3010 RMK AO2 T01490070
KDNV 190035Z AUTO 18008KT 10SM CLR 15/07 A3010 RMK AO2 T01460070
KDNV 190015Z AUTO 17007KT 10SM CLR 15/07 A3010 RMK AO2 T01480070
KDNV 182355Z AUTO 17008KT 10SM CLR 15/07 A3010 RMK AO2 T01520070 10214 20152
KDNV 182335Z AUTO 17008KT 10SM CLR 16/07 A3010 RMK AO2 T01610070
KDNV 182315Z AUTO 17009KT 10SM CLR 17/07 A3010 RMK AO2 T01700067
KDNV 182255Z AUTO 17011KT 10SM CLR 18/07 A3010 RMK AO2 T01800069
KDNV 182235Z AUTO 17011KT 10SM CLR 19/07 A3009 RMK AO2 T01900068
KDNV 182215Z AUTO 18010KT 10SM CLR 20/07 A3010 RMK AO2 T01970065
KDNV 182155Z AUTO 19014G19KT 10SM CLR 20/06 A3010 RMK AO2 T02030056
KDNV 182135Z AUTO 18014G17KT 10SM CLR 21/06 A3009 RMK AO2 T02070055
KDNV 182115Z AUTO 18013G17KT 10SM CLR 21/05 A3010 RMK AO2 T02100052